Time,TemperatureF,DewpointF,PressureIn,WindDirection,WindDirectionDegrees,WindSpeedMPH,WindSpeedGustMPH,Humidity,HourlyPrecipIn,Conditions,Clouds,dailyrainin,SolarRadiationWatts/m^2,SoftwareType,DateUTC
2013-02-03 00:00:00,34.4,27.9,30.05,West,272,1.0,1.0,77,0.00,,,0.02,0,Wunderground v.1.15,2013-02-03 05:00:00,
2013-02-03 00:10:00,34.4,28.2,30.05,West,272,1.0,25.0,78,0.00,,,0.02,0,Wunderground v.1.15,2013-02-03 05:10:00,
2013-02-03 00:20:00,34.4,28.2,30.05,West,272,1.0,1.0,78,0.00,,,0.02,0,Wunderground v.1.15,2013-02-03 05:20:00,
2013-02-03 00:30:00,33.9,28.1,30.05,West,272,1.0,1.0,79,0.00,,,0.02,0,Wunderground v.1.15,2013-02-03 05:30:00,
2013-02-03 00:40:00,33.6,28.1,30.05,West,272,1.0,25.0,80,0.00,,,0.02,0,Wunderground v.1.15,2013-02-03 05:40:00,
2013-02-03 00:50:00,33.7,28.2,30.05,West,272,2.0,25.0,80,0.00,,,0.02,0,Wunderground v.1.15,2013-02-03 05:50:00,
2013-02-03 01:00:00,33.4,28.2,30.05,West,272,2.0,25.0,81,0.00,,,0.02,0,Wunderground v.1.15,2013-02-03 06:00:00,
2013-02-03 01:10:00,32.8,27.9,30.04,West,272,2.0,2.0,82,0.00,,,0.02,0,Wunderground v.1.15,2013-02-03 06:10:00,
2013-02-03 01:20:00,33.1,28.2,30.04,WSW,242,2.0,2.0,82,0.00,,,0.02,0,Wunderground v.1.15,2013-02-03 06:20:00,
2013-02-03 01:30:00,33.3,28.4,30.04,West,271,2.0,25.0,82,0.00,,,0.02,0,Wunderground v.1.15,2013-02-03 06:30:00,
2013-02-03 01:40:00,33.6,28.4,30.04,West,261,3.0,25.0,81,0.00,,,0.02,0,Wunderground v.1.15,2013-02-03 06:40:00,
2013-02-03 01:50:00,33.7,28.8,30.04,WSW,255,3.0,3.0,82,0.00,,,0.02,0,Wunderground v.1.15,2013-02-03 06:50:00,
2013-02-03 02:00:00,33.7,28.8,30.03,West,273,3.0,3.0,82,0.00,,,0.00,0,Wunderground v.1.15,2013-02-03 07:00:00,
2013-02-03 02:10:00,34.2,29.0,30.03,West,275,3.0,3.0,81,0.00,,,0.00,0,Wunderground v.1.15,2013-02-03 07:10:00,
2013-02-03 02:20:00,34.2,29.0,30.03,West,273,2.0,25.0,81,0.00,,,0.00,0,Wunderground v.1.15,2013-02-03 07:20:00,
2013-02-03 02:30:00,34.4,29.5,30.03,West,267,3.0,3.0,82,0.00,,,0.00,0,Wunderground v.1.15,2013-02-03 07:30:00,
2013-02-03 02:40:00,34.6,29.7,30.03,West,279,3.0,3.0,82,0.00,,,0.00,0,Wunderground v.1.15,2013-02-03 07:40:00,
2013-02-03 02:50:00,34.8,29.6,30.02,West,271,2.0,25.0,81,0.00,,,0.00,0,Wunderground v.1.15,2013-02-03 07:50:00,
2013-02-03 03:00:00,34.7,29.5,30.02,WSW,254,2.0,2.0,81,0.00,,,0.00,0,Wunderground v.1.15,2013-02-03 08:00:00,
2013-02-03 03:10:00,34.0,29.1,30.01,SW,236,2.0,2.0,82,0.00,,,0.00,0,Wunderground v.1.15,2013-02-03 08:10:00,
2013-02-03 03:20:00,33.9,29.3,30.00,West,273,2.0,25.0,83,0.00,,,0.00,0,Wunderground v.1.15,2013-02-03 08:20:00,
2013-02-03 03:30:00,34.4,29.8,30.00,WSW,249,2.0,25.0,83,0.00,,,0.00,0,Wunderground v.1.15,2013-02-03 08:30:00,
2013-02-03 03:40:00,34.9,30.0,30.01,West,279,3.0,25.0,82,0.00,,,0.00,0,Wunderground v.1.15,2013-02-03 08:40:00,
2013-02-03 03:50:00,35.0,29.8,30.00,West,263,3.0,3.0,81,0.00,,,0.00,0,Wunderground v.1.15,2013-02-03 08:50:00,
2013-02-03 04:00:00,34.2,29.3,29.99,WSW,244,2.0,25.0,82,0.00,,,0.00,0,Wunderground v.1.15,2013-02-03 09:00:00,
2013-02-03 04:10:00,33.3,29.0,29.99,WSW,244,2.0,25.0,84,0.00,,,0.00,0,Wunderground v.1.15,2013-02-03 09:10:00,
2013-02-03 04:20:00,33.3,29.0,29.98,WSW,244,2.0,2.0,84,0.00,,,0.00,0,Wunderground v.1.15,2013-02-03 09:20:00,
2013-02-03 04:30:00,33.4,29.4,29.98,West,264,3.0,25.0,85,0.00,,,0.00,0,Wunderground v.1.15,2013-02-03 09:30:00,
2013-02-03 04:40:00,33.7,29.7,29.98,WSW,240,3.0,3.0,85,0.00,,,0.00,0,Wunderground v.1.15,2013-02-03 09:40:00,
2013-02-03 04:50:00,33.9,29.6,29.97,WSW,250,3.0,25.0,84,0.00,,,0.00,0,Wunderground v.1.15,2013-02-03 09:50:00,
2013-02-03 05:00:00,34.2,29.9,29.97,West,267,3.0,25.0,84,0.00,,,0.00,0,Wunderground v.1.15,2013-02-03 10:00:00,
2013-02-03 05:10:00,34.3,30.0,29.97,West,275,3.0,3.0,84,0.00,,,0.00,0,Wunderground v.1.15,2013-02-03 10:10:00,
2013-02-03 05:20:00,34.1,29.8,29.97,WSW,257,3.0,25.0,84,0.00,,,0.00,0,Wunderground v.1.15,2013-02-03 10:20:00,
2013-02-03 05:30:00,34.2,29.9,29.96,WSW,238,4.0,25.0,84,0.00,,,0.00,0,Wunderground v.1.15,2013-02-03 10:30:00,
2013-02-03 05:40:00,34.4,30.1,29.96,WSW,251,4.0,4.0,84,0.00,,,0.00,0,Wunderground v.1.15,2013-02-03 10:40:00,
2013-02-03 05:50:00,34.6,30.0,29.96,WSW,250,3.0,3.0,83,0.00,,,0.00,0,Wunderground v.1.15,2013-02-03 10:50:00,
2013-02-03 06:00:00,34.7,30.1,29.96,SW,232,3.0,25.0,83,0.00,,,0.00,0,Wunderground v.1.15,2013-02-03 11:00:00,
2013-02-03 06:10:00,34.8,30.2,29.95,WSW,246,3.0,25.0,83,0.00,,,0.00,0,Wunderground v.1.15,2013-02-03 11:10:00,
2013-02-03 06:20:00,35.5,30.5,29.96,West,278,4.0,4.0,82,0.00,,,0.00,0,Wunderground v.1.15,2013-02-03 11:20:00,
2013-02-03 06:30:00,36.0,30.4,29.96,West,281,5.0,25.0,80,0.00,,,0.00,0,Wunderground v.1.15,2013-02-03 11:30:00,
2013-02-03 06:40:00,36.2,30.6,29.96,WNW,287,5.0,25.0,80,0.00,,,0.00,0,Wunderground v.1.15,2013-02-03 11:40:00,
2013-02-03 06:50:00,36.5,30.6,29.96,West,259,6.0,6.0,79,0.00,,,0.00,0,Wunderground v.1.15,2013-02-03 11:50:00,
2013-02-03 07:00:00,37.2,30.7,29.96,West,259,7.0,7.0,77,0.00,,,0.00,0,Wunderground v.1.15,2013-02-03 12:00:00,
2013-02-03 07:10:00,37.7,30.8,29.96,West,273,6.0,25.0,76,0.00,,,0.00,0,Wunderground v.1.15,2013-02-03 12:10:00,
2013-02-03 07:20:00,38.6,31.0,29.96,West,277,8.0,25.0,74,0.00,,,0.00,0,Wunderground v.1.15,2013-02-03 12:20:00,
2013-02-03 07:30:00,38.5,30.9,29.97,WNW,283,7.0,25.0,74,0.00,,,0.00,0,Wunderground v.1.15,2013-02-03 12:30:00,
2013-02-03 07:40:00,38.3,31.1,29.97,West,277,9.0,9.0,75,0.00,,,0.00,0,Wunderground v.1.15,2013-02-03 12:40:00,
2013-02-03 07:50:00,38.1,30.9,29.97,NNW,333,7.0,25.0,75,0.00,,,0.00,0,Wunderground v.1.15,2013-02-03 12:50:00,
2013-02-03 08:00:00,37.9,30.7,29.98,West,271,5.0,25.0,75,0.00,,,0.00,9,Wunderground v.1.15,2013-02-03 13:00:00,
2013-02-03 08:10:00,37.8,30.9,29.98,WNW,285,6.0,25.0,76,0.00,,,0.00,14,Wunderground v.1.15,2013-02-03 13:10:00,
2013-02-03 08:20:00,37.9,30.7,29.99,WNW,290,6.0,6.0,75,0.00,,,0.00,18,Wunderground v.1.15,2013-02-03 13:20:00,
2013-02-03 08:30:00,38.0,30.8,29.99,West,277,5.0,5.0,75,0.00,,,0.00,19,Wunderground v.1.15,2013-02-03 13:30:00,
2013-02-03 08:40:00,38.1,30.9,30.00,WNW,299,4.0,4.0,75,0.00,,,0.00,23,Wunderground v.1.15,2013-02-03 13:40:00,
2013-02-03 08:50:00,38.3,31.1,29.99,West,273,4.0,25.0,75,0.00,,,0.00,25,Wunderground v.1.15,2013-02-03 13:50:00,
2013-02-03 09:00:00,38.8,31.2,29.99,WNW,292,5.0,25.0,74,0.00,,,0.00,33,Wunderground v.1.15,2013-02-03 14:00:00,
2013-02-03 09:10:00,39.5,31.6,30.00,NW,314,6.0,6.0,73,0.00,,,0.00,127,Wunderground v.1.15,2013-02-03 14:10:00,
2013-02-03 09:20:00,40.4,31.7,30.00,NW,309,6.0,25.0,71,0.00,,,0.00,155,Wunderground v.1.15,2013-02-03 14:20:00,
2013-02-03 09:30:00,41.3,32.6,30.00,WNW,294,5.0,25.0,71,0.00,,,0.00,283,Wunderground v.1.15,2013-02-03 14:30:00,
2013-02-03 09:40:00,42.0,32.6,30.00,WNW,292,5.0,25.0,69,0.00,,,0.00,322,Wunderground v.1.15,2013-02-03 14:40:00,
2013-02-03 09:50:00,42.4,32.6,30.00,West,275,6.0,25.0,68,0.00,,,0.00,352,Wunderground v.1.15,2013-02-03 14:50:00,
2013-02-03 10:00:00,43.0,32.8,30.00,WNW,292,5.0,25.0,67,0.00,,,0.00,383,Wunderground v.1.15,2013-02-03 15:00:00,
2013-02-03 10:10:00,43.2,32.6,30.01,West,266,8.0,8.0,66,0.00,,,0.00,411,Wunderground v.1.15,2013-02-03 15:10:00,
2013-02-03 10:20:00,43.9,32.9,30.00,West,280,6.0,25.0,65,0.00,,,0.00,441,Wunderground v.1.15,2013-02-03 15:20:00,
2013-02-03 10:30:00,44.5,31.9,30.00,NNW,336,7.0,25.0,61,0.00,,,0.00,475,Wunderground v.1.15,2013-02-03 15:30:00,
2013-02-03 10:40:00,44.7,32.1,30.00,North,5,6.0,6.0,61,0.00,,,0.00,524,Wunderground v.1.15,2013-02-03 15:40:00,
2013-02-03 10:50:00,44.7,31.7,30.01,WNW,301,6.0,25.0,60,0.00,,,0.00,550,Wunderground v.1.15,2013-02-03 15:50:00,
2013-02-03 11:00:00,45.4,32.3,30.01,WNW,286,5.0,25.0,60,0.00,,,0.00,610,Wunderground v.1.15,2013-02-03 16:00:00,
2013-02-03 11:10:00,45.1,30.8,30.01,West,281,6.0,25.0,57,0.00,,,0.00,621,Wunderground v.1.15,2013-02-03 16:10:00,
2013-02-03 11:20:00,45.9,31.1,30.01,North,360,8.0,25.0,56,0.00,,,0.00,598,Wunderground v.1.15,2013-02-03 16:20:00,
2013-02-03 11:30:00,45.9,30.2,30.01,NNW,346,9.0,25.0,54,0.00,,,0.00,613,Wunderground v.1.15,2013-02-03 16:30:00,
2013-02-03 11:40:00,46.4,29.7,30.01,North,355,9.0,9.0,52,0.00,,,0.00,626,Wunderground v.1.15,2013-02-03 16:40:00,
2013-02-03 11:50:00,46.6,29.4,30.00,WNW,302,9.0,25.0,51,0.00,,,0.00,638,Wunderground v.1.15,2013-02-03 16:50:00,
2013-02-03 12:00:00,46.5,28.8,30.00,NNW,346,10.0,25.0,50,0.00,,,0.00,652,Wunderground v.1.15,2013-02-03 17:00:00,
2013-02-03 12:10:00,47.7,30.0,30.00,NW,311,7.0,7.0,50,0.00,,,0.00,668,Wunderground v.1.15,2013-02-03 17:10:00,
2013-02-03 12:20:00,47.8,29.5,30.00,West,279,7.0,25.0,49,0.00,,,0.00,679,Wunderground v.1.15,2013-02-03 17:20:00,
2013-02-03 12:30:00,48.3,29.0,30.00,NNW,329,8.0,8.0,47,0.00,,,0.00,687,Wunderground v.1.15,2013-02-03 17:30:00,
2013-02-03 12:40:00,49.0,28.6,30.00,NNE,28,5.0,25.0,45,0.00,,,0.00,703,Wunderground v.1.15,2013-02-03 17:40:00,
2013-02-03 12:50:00,49.3,29.9,30.00,North,355,6.0,6.0,47,0.00,,,0.00,694,Wunderground v.1.15,2013-02-03 17:50:00,
2013-02-03 13:00:00,49.0,29.1,29.99,WNW,296,8.0,25.0,46,0.00,,,0.00,712,Wunderground v.1.15,2013-02-03 18:00:00,
2013-02-03 13:10:00,49.2,29.8,29.99,NW,321,7.0,25.0,47,0.00,,,0.00,726,Wunderground v.1.15,2013-02-03 18:10:00,
2013-02-03 13:20:00,49.8,30.4,29.99,NNW,348,8.0,8.0,47,0.00,,,0.00,775,Wunderground v.1.15,2013-02-03 18:20:00,
2013-02-03 13:30:00,49.7,29.7,29.99,WNW,292,9.0,9.0,46,0.00,,,0.00,700,Wunderground v.1.15,2013-02-03 18:30:00,
2013-02-03 13:40:00,50.3,29.2,29.99,WNW,285,7.0,7.0,44,0.00,,,0.00,700,Wunderground v.1.15,2013-02-03 18:40:00,
2013-02-03 13:50:00,50.7,29.0,29.98,NNE,13,6.0,6.0,43,0.00,,,0.00,687,Wunderground v.1.15,2013-02-03 18:50:00,
2013-02-03 14:00:00,50.1,28.4,29.98,WNW,296,8.0,25.0,43,0.00,,,0.00,675,Wunderground v.1.15,2013-02-03 19:00:00,
2013-02-03 14:10:00,50.6,29.5,29.98,WNW,286,9.0,9.0,44,0.00,,,0.00,666,Wunderground v.1.15,2013-02-03 19:10:00,
2013-02-03 14:20:00,50.6,28.3,29.98,NW,316,7.0,25.0,42,0.00,,,0.00,659,Wunderground v.1.15,2013-02-03 19:20:00,
2013-02-03 14:30:00,50.8,29.1,29.98,WNW,286,7.0,7.0,43,0.00,,,0.00,679,Wunderground v.1.15,2013-02-03 19:30:00,
2013-02-03 14:40:00,51.1,29.4,29.98,WSW,250,6.0,6.0,43,0.00,,,0.00,643,Wunderground v.1.15,2013-02-03 19:40:00,
2013-02-03 14:50:00,51.4,30.2,29.98,NW,309,6.0,6.0,44,0.00,,,0.00,612,Wunderground v.1.15,2013-02-03 19:50:00,
2013-02-03 15:00:00,51.1,28.2,29.99,WNW,291,6.0,25.0,41,0.00,,,0.00,589,Wunderground v.1.15,2013-02-03 20:00:00,
2013-02-03 15:10:00,51.1,27.6,29.99,NE,38,6.0,6.0,40,0.00,,,0.00,578,Wunderground v.1.15,2013-02-03 20:10:00,
2013-02-03 15:20:00,50.5,27.7,29.99,WNW,290,7.0,7.0,41,0.00,,,0.00,547,Wunderground v.1.15,2013-02-03 20:20:00,
2013-02-03 15:30:00,49.9,27.1,29.99,NNW,331,6.0,25.0,41,0.00,,,0.00,524,Wunderground v.1.15,2013-02-03 20:30:00,
2013-02-03 15:40:00,49.6,27.4,29.99,WNW,282,8.0,8.0,42,0.00,,,0.00,501,Wunderground v.1.15,2013-02-03 20:40:00,
2013-02-03 15:50:00,49.9,27.7,30.00,WNW,294,5.0,5.0,42,0.00,,,0.00,473,Wunderground v.1.15,2013-02-03 20:50:00,
2013-02-03 16:00:00,49.6,27.4,30.00,NW,319,5.0,5.0,42,0.00,,,0.00,445,Wunderground v.1.15,2013-02-03 21:00:00,
2013-02-03 16:10:00,49.4,27.8,30.01,West,263,6.0,6.0,43,0.00,,,0.00,418,Wunderground v.1.15,2013-02-03 21:10:00,
2013-02-03 16:20:00,48.7,27.2,30.00,NW,309,9.0,25.0,43,0.00,,,0.00,357,Wunderground v.1.15,2013-02-03 21:20:00,
2013-02-03 16:30:00,48.5,27.0,30.01,NNW,342,8.0,8.0,43,0.00,,,0.00,355,Wunderground v.1.15,2013-02-03 21:30:00,
2013-02-03 16:40:00,48.5,27.6,30.01,WNW,295,6.0,25.0,44,0.00,,,0.00,323,Wunderground v.1.15,2013-02-03 21:40:00,
2013-02-03 16:50:00,47.9,27.0,30.01,WNW,283,8.0,8.0,44,0.00,,,0.00,292,Wunderground v.1.15,2013-02-03 21:50:00,
2013-02-03 17:00:00,47.9,27.0,30.01,North,355,5.0,25.0,44,0.00,,,0.00,257,Wunderground v.1.15,2013-02-03 22:00:00,
2013-02-03 17:10:00,47.5,27.2,30.02,WNW,296,6.0,6.0,45,0.00,,,0.00,225,Wunderground v.1.15,2013-02-03 22:10:00,
2013-02-03 17:20:00,47.1,26.8,30.02,North,355,6.0,6.0,45,0.00,,,0.00,195,Wunderground v.1.15,2013-02-03 22:20:00,
2013-02-03 17:30:00,47.0,27.3,30.02,NW,310,4.0,4.0,46,0.00,,,0.00,148,Wunderground v.1.15,2013-02-03 22:30:00,
2013-02-03 17:40:00,46.7,27.5,30.02,North,350,4.0,4.0,47,0.00,,,0.00,102,Wunderground v.1.15,2013-02-03 22:40:00,
2013-02-03 17:50:00,46.0,27.4,30.03,WNW,301,4.0,4.0,48,0.00,,,0.00,67,Wunderground v.1.15,2013-02-03 22:50:00,
2013-02-03 18:00:00,45.5,27.4,30.03,West,259,3.0,25.0,49,0.00,,,0.00,28,Wunderground v.1.15,2013-02-03 23:00:00,
2013-02-03 18:10:00,44.7,27.7,30.03,NNW,346,2.0,2.0,51,0.00,,,0.00,11,Wunderground v.1.15,2013-02-03 23:10:00,
2013-02-03 18:20:00,44.1,27.6,30.03,NW,307,3.0,3.0,52,0.00,,,0.00,0,Wunderground v.1.15,2013-02-03 23:20:00,
2013-02-03 18:30:00,43.4,27.8,30.03,NW,313,2.0,2.0,54,0.00,,,0.00,0,Wunderground v.1.15,2013-02-03 23:30:00,
2013-02-03 18:40:00,42.7,27.6,30.03,WNW,288,0.0,25.0,55,0.00,,,0.00,0,Wunderground v.1.15,2013-02-03 23:40:00,
2013-02-03 18:50:00,41.9,27.3,30.03,WNW,288,0.0,25.0,56,0.00,,,0.00,0,Wunderground v.1.15,2013-02-03 23:50:00,
2013-02-03 19:00:00,41.2,27.5,30.03,WNW,288,0.0,25.0,58,0.00,,,0.00,0,Wunderground v.1.15,2013-02-04 00:00:00,
2013-02-03 19:10:00,40.6,27.4,30.04,WNW,288,0.0,25.0,59,0.00,,,0.00,0,Wunderground v.1.15,2013-02-04 00:10:00,
2013-02-03 19:20:00,40.0,26.8,30.05,WNW,288,0.0,25.0,59,0.00,,,0.00,0,Wunderground v.1.15,2013-02-04 00:20:00,
2013-02-03 19:30:00,39.5,26.8,30.05,WNW,288,0.0,25.0,60,0.00,,,0.00,0,Wunderground v.1.15,2013-02-04 00:30:00,
2013-02-03 19:40:00,39.0,26.7,30.06,WNW,288,0.0,25.0,61,0.00,,,0.00,0,Wunderground v.1.15,2013-02-04 00:40:00,
2013-02-03 19:50:00,38.6,27.1,30.06,WNW,288,0.0,25.0,63,0.00,,,0.00,0,Wunderground v.1.15,2013-02-04 00:50:00,
2013-02-03 20:00:00,38.3,26.8,30.05,WNW,288,0.0,25.0,63,0.00,,,0.00,0,Wunderground v.1.15,2013-02-04 01:00:00,
2013-02-03 20:10:00,38.3,26.8,30.06,WNW,288,0.0,25.0,63,0.00,,,0.00,0,Wunderground v.1.15,2013-02-04 01:10:00,
2013-02-03 20:20:00,38.2,26.7,30.05,WNW,288,0.0,25.0,63,0.00,,,0.00,0,Wunderground v.1.15,2013-02-04 01:20:00,
2013-02-03 20:30:00,38.0,26.5,30.05,WNW,288,0.0,25.0,63,0.00,,,0.00,0,Wunderground v.1.15,2013-02-04 01:30:00,
2013-02-03 20:40:00,37.7,26.6,30.06,WNW,288,0.0,25.0,64,0.00,,,0.00,0,Wunderground v.1.15,2013-02-04 01:40:00,
2013-02-03 20:50:00,37.5,26.8,30.06,WNW,288,0.0,25.0,65,0.00,,,0.00,0,Wunderground v.1.15,2013-02-04 01:50:00,
2013-02-03 21:00:00,37.4,26.3,30.05,WNW,288,0.0,25.0,64,0.00,,,0.00,0,Wunderground v.1.15,2013-02-04 02:00:00,
2013-02-03 21:10:00,37.3,26.6,30.05,WNW,288,0.0,25.0,65,0.00,,,0.00,0,Wunderground v.1.15,2013-02-04 02:10:00,
2013-02-03 21:20:00,37.3,26.2,30.05,WNW,288,0.0,25.0,64,0.00,,,0.00,0,Wunderground v.1.15,2013-02-04 02:20:00,
2013-02-03 21:30:00,37.3,26.2,30.05,ENE,74,1.0,1.0,64,0.00,,,0.00,0,Wunderground v.1.15,2013-02-04 02:30:00,
2013-02-03 21:40:00,37.5,26.4,30.05,ENE,74,0.0,25.0,64,0.00,,,0.00,0,Wunderground v.1.15,2013-02-04 02:40:00,
2013-02-03 21:50:00,37.7,26.2,30.05,ENE,74,1.0,1.0,63,0.00,,,0.00,0,Wunderground v.1.15,2013-02-04 02:50:00,
2013-02-03 22:00:00,37.5,26.4,30.05,ENE,74,0.0,25.0,64,0.00,,,0.00,0,Wunderground v.1.15,2013-02-04 03:00:00,
2013-02-03 22:10:00,37.3,26.2,30.05,ENE,74,0.0,25.0,64,0.00,,,0.00,0,Wunderground v.1.15,2013-02-04 03:10:00,
2013-02-03 22:20:00,37.1,26.0,30.06,ENE,74,1.0,25.0,64,0.00,,,0.00,0,Wunderground v.1.15,2013-02-04 03:20:00,
2013-02-03 22:30:00,36.0,25.7,30.06,ENE,67,1.0,1.0,66,0.00,,,0.00,0,Wunderground v.1.15,2013-02-04 03:30:00,
2013-02-03 22:40:00,35.5,25.6,30.06,ENE,67,0.0,25.0,67,0.00,,,0.00,0,Wunderground v.1.15,2013-02-04 03:40:00,
2013-02-03 22:50:00,35.3,25.4,30.06,ENE,67,0.0,25.0,67,0.00,,,0.00,0,Wunderground v.1.15,2013-02-04 03:50:00,
2013-02-03 23:00:00,34.1,25.3,30.07,ENE,67,0.0,25.0,70,0.00,,,0.00,0,Wunderground v.1.15,2013-02-04 04:00:00,
2013-02-03 23:10:00,33.9,25.5,30.06,ENE,67,0.0,25.0,71,0.00,,,0.00,0,Wunderground v.1.15,2013-02-04 04:10:00,
2013-02-03 23:20:00,33.3,24.9,30.06,ENE,67,0.0,25.0,71,0.00,,,0.00,0,Wunderground v.1.15,2013-02-04 04:20:00,
2013-02-03 23:30:00,32.6,24.9,30.06,ENE,67,0.0,25.0,73,0.00,,,0.00,0,Wunderground v.1.15,2013-02-04 04:30:00,
2013-02-03 23:40:00,32.3,24.9,30.06,ENE,67,0.0,25.0,74,0.00,,,0.00,0,Wunderground v.1.15,2013-02-04 04:40:00,
2013-02-03 23:50:00,32.1,25.1,30.07,ENE,67,0.0,25.0,75,0.00,,,0.00,0,Wunderground v.1.15,2013-02-04 04:50:00,